OIZI  Iran Shahr  Airport

Iranshahr, Iran

Add Bookmark
ICAO OIZI
Type Airport
Status Operational
Latitude
27° 14' 9" N
27.236099
Longitude
60° 43' 12" E
60.720001
Local (GMT +4.5 ) UTC
Apr 30, 2016 02:06 am Apr 29, 2016 21:36
Sunrise-Sunset Local UTC
Begin Civil Twilight 05:22 am 00:52
Sunrise 05:47 am 01:17
Sunset 07:01 pm 14:31
End Civil Twilight 07:25 pm 14:55
VFR
VFR
MVFR
MVFR
IFR
IFR
LIFR
LIFR
Unknown
Unavailable

Current Weather

METAR Observed VFR
OIZI 292100Z 26006KT CAVOK 30/05 Q1010 Fri, Apr 29, 2016 @ 21:00 UTC
(36 Minutes ago)
Visual Flight Rules
Wind Visibility Conditions
260° at 6 knots (11 kph) 10 km or more
  • No significant weather
Temperatures Readings Precipitation
Current Temp
30°C
86°F
Dewpoint
5°C
41°F
Humidity 20%
Altimeter 29.82" Hg
Sea Level Pressure 1,010 mb
Field Elevation
591 m
1,939 ft
None Recorded
-
-

CheckWX.com is intended as a tool to help pilots better visualize weather data. It is not intended as a substitute for an official weather briefing obtained from a Flight Service Station. CheckWX.com does not meet the FAA requirements for an official pre-flight weather briefing. Therefore, it's important that pilots still call and obtain an official FSS pre-flight weather briefing.

© 2007-2016 CheckWX.com
21:36:23 UTC